Flight Track Log - Related Links

Times and Time Zones

All times are in EDT time to prevent confusion due to time zone crossing. See the SKW4664 flight status page for this flight to view local times or setup timezone preferences in your user account.

Time Position Orientation Groundspeed Altitude Reporting Facility
EDT Latitude Longitude Course Direction KTS MPH feet Rate Location/Type
Sat 02:42:04 PM 44.9008 -93.2331 69° East 161 185 1,800  Level FAA TRACON SMA TRACON (SMA)
Sat 02:42:24 PM 44.9144 -93.2367 349° North 172 198 2,400 1,950 Climbing FAA TRACON SMA TRACON (SMA)
Sat 02:42:44 PM 44.9308 -93.2339 North 183 211 3,100 2,400 Climbing FAA TRACON SMA TRACON (SMA)
Sat 02:43:04 PM 44.9533 -93.2300 North 210 242 4,000 2,308 Climbing FAA TRACON SMA TRACON (SMA)
Sat 02:43:23 PM 44.9739 -93.2256 North 235 270 4,600 2,308 Climbing FAA TRACON SMA TRACON (SMA)
Sat 02:43:43 PM 44.9928 -93.2100 30° Northeast 257 296 5,500 3,000 Climbing FAA TRACON SMA TRACON (SMA)
Sat 02:44:23 PM 45.0172 -93.1464 61° Northeast 272 313 7,600 2,900 Climbing FAA TRACON SMA TRACON (SMA)
Sat 02:44:43 PM 45.0278 -93.1167 63° Northeast 274 315 8,400 2,400 Climbing FAA TRACON SMA TRACON (SMA)
Sat 02:45:00 PM 45.0238 -92.6601 66° East  Level FlightAware Approximate
Sat 02:45:03 PM 45.0392 -93.0872 61° Northeast 278 320 9,200  Level FAA TRACON SMA TRACON (SMA)
Sat 02:45:23 PM 45.0528 -93.0494 63° Northeast 279 321 10,100 1,902 Climbing FAA TRACON SMA TRACON (SMA)
Sat 02:45:44 PM 45.0639 -93.0172 64° Northeast 292 336 10,500 1,610 Climbing FAA TRACON SMA TRACON (SMA)
Sat 02:46:00 PM 45.0663 -92.5223 66° East  Level FlightAware Approximate
Sat 02:46:04 PM 45.0747 -92.9839 65° Northeast 302 348 11,200  Level FAA TRACON SMA TRACON (SMA)
Sat 02:46:24 PM 45.0894 -92.9422 63° Northeast 308 354 12,000 2,250 Climbing FAA TRACON SMA TRACON (SMA)
Sat 02:46:44 PM 45.1019 -92.9086 62° Northeast 313 360 12,700 2,400 Climbing FAA TRACON SMA TRACON (SMA)
Sat 02:47:00 PM 45.1003 -92.3822 69° East  Level FlightAware Approximate
Sat 02:47:04 PM 45.1167 -92.8644 65° Northeast 321 369 13,600  Level FAA TRACON SMA TRACON (SMA)
Sat 02:47:24 PM 45.1283 -92.8294 65° Northeast 322 371 14,300 1,800 Climbing FAA TRACON SMA TRACON (SMA)
Sat 02:47:44 PM 45.1406 -92.7939 64° Northeast 328 377 14,800 2,100 Climbing FAA TRACON SMA TRACON (SMA)
Sat 02:48:04 PM 45.1556 -92.7483 65° Northeast 330 380 15,700 2,100 Climbing FAA TRACON SMA TRACON (SMA)
Sat 02:48:24 PM 45.1683 -92.7119 64° Northeast 336 387 16,200 1,350 Climbing FAA TRACON SMA TRACON (SMA)
Sat 02:48:44 PM 45.1808 -92.6744 65° Northeast 340 391 16,600 1,650 Climbing FAA TRACON SMA TRACON (SMA)
Sat 02:49:04 PM 45.1969 -92.6264 65° Northeast 348 400 17,300 1,800 Climbing FAA TRACON SMA TRACON (SMA)
Sat 02:49:24 PM 45.2092 -92.5875 66° East 353 406 17,800 1,050 Climbing FAA TRACON SMA TRACON (SMA)
Sat 02:49:44 PM 45.2225 -92.5492 64° Northeast 355 409 18,000 1,400 Climbing FAA TRACON SMA TRACON (SMA)
Sat 02:50:24 PM 45.2497 -92.4583 67° East 364 419 19,200 1,900 Climbing FAA TRACON SMA TRACON (SMA)
Sat 02:50:44 PM 45.2497 -92.4128 90° East 373 429 19,900 1,692 Climbing FAA TRACON SMA TRACON (SMA)
Sat 02:51:03 PM 45.2447 -92.3658 99° East 385 443 20,300 1,650 Climbing FAA TRACON SMA TRACON (SMA)
Sat 02:51:24 PM 45.2386 -92.3075 98° East 392 451 21,000 1,500 Climbing FAA TRACON SMA TRACON (SMA)
Sat 02:51:43 PM 45.2339 -92.2600 98° East 394 453 21,300 900 Climbing FAA TRACON SMA TRACON (SMA)
Sat 02:52:04 PM 45.2261 -92.2125 103° East 397 457 21,600 1,317 Climbing FAA TRACON SMA TRACON (SMA)
Sat 02:52:24 PM 45.2150 -92.1531 105° East 406 467 22,200 1,350 Climbing FAA TRACON SMA TRACON (SMA)
Sat 02:52:44 PM 45.2053 -92.1042 106° East 410 472 22,500 1,050 Climbing FAA TRACON SMA TRACON (SMA)
Sat 02:53:04 PM 45.1983 -92.0561 102° East 411 473 22,900 1,350 Climbing FAA TRACON SMA TRACON (SMA)
Sat 02:53:24 PM 45.1872 -91.9953 105° East 415 478 23,400 1,200 Climbing FAA TRACON SMA TRACON (SMA)
Sat 02:53:44 PM 45.1786 -91.9458 104° East 418 481 23,700 1,050 Climbing FAA TRACON SMA TRACON (SMA)
Sat 02:54:04 PM 45.1694 -91.8961 105° East 423 487 24,100 1,137 Climbing FAA TRACON SMA TRACON (SMA)
Sat 02:55:19 PM 45.1214 -91.6903 108° East 425 489 25,500 971 Climbing Minneapolis Center
Sat 02:56:20 PM 45.0858 -91.5147 106° East 436 502 26,300 732 Climbing Minneapolis Center
Sat 02:57:22 PM 45.0556 -91.3514 105° East 444 511 27,000 341 Climbing Minneapolis Center
Sat 02:58:23 PM 45.0208 -91.1708 105° East 454 522 27,000  Level Minneapolis Center
Sat 02:59:24 PM 44.9847 -90.9875 106° East 462 532 27,000  Level Minneapolis Center
Sat 03:00:26 PM 44.9556 -90.8275 104° East 469 540 27,000  Level Minneapolis Center
Sat 03:01:27 PM 44.9208 -90.6492 105° East 473 544 27,000  Level Minneapolis Center
Sat 03:02:28 PM 44.8833 -90.4675 106° East 483 556 27,000  Level Minneapolis Center
Sat 03:03:30 PM 44.8397 -90.2486 106° East 486 559 27,000 -878 Level Minneapolis Center
Sat 03:04:31 PM 44.8039 -90.0692 106° East 489 563 25,200 -2,146 Descending Minneapolis Center
Sat 03:05:33 PM 44.7661 -89.8825 106° East 495 570 22,600 -2,537 Descending Minneapolis Center
Sat 03:06:34 PM 44.7297 -89.7119 107° East 464 534 20,000 -2,459 Descending Minneapolis Center
Sat 03:07:35 PM 44.6958 -89.5408 106° East 433 498 17,600 -2,488 Descending Minneapolis Center
Sat 03:08:37 PM 44.6647 -89.3886 106° East 393 452 14,900 -2,293 Descending Minneapolis Center
Sat 03:09:38 PM 44.6344 -89.2444 106° East 373 429 12,900 -1,721 Descending Minneapolis Center
Sat 03:10:39 PM 44.6050 -89.1092 107° East 376 433 11,400 -1,415 Descending Minneapolis Center
Sat 03:11:41 PM 44.5789 -88.9853 106° East 322 371 10,000 -1,561 Descending Minneapolis Center
Sat 03:12:42 PM 44.5303 -88.9031 130° Southeast 290 334 8,200 -1,623 Descending Minneapolis Center
Sat 03:13:43 PM 44.4622 -88.8492 151° Southeast 281 323 6,700 -1,328 Descending Minneapolis Center
Sat 03:14:44 PM 44.3997 -88.7953 148° Southeast 271 312 5,500 -1,171 Descending Minneapolis Center
Sat 03:15:46 PM 44.3378 -88.7419 148° Southeast 264 304 4,300 -1,171 Descending Minneapolis Center
Sat 03:16:47 PM 44.2733 -88.7111 161° South 254 292 3,100 -639 Descending Minneapolis Center
Sat 03:17:48 PM 44.2217 -88.6861 161° South 220 253 3,000 -98 Descending Minneapolis Center
Sat 03:18:49 PM 44.1967 -88.6317 123° Southeast 181 208 2,900 -98 Descending Minneapolis Center

Login

Don't have an account? Register now (free) for customized features, flight alerts, and more!